PWSweather.com
Personal Weather Stations
Station Observations
PEISSEN1
PeissenbergDE

PeissenbergDE

Lat: 47.791845, Lon: 11.064121

Elevation: 1929

Station Type: Davis Vantage Pro 2

wetter-peissenberg.de

High Low Average
Temperature 57.7°F14.3°C 49.5°F9.7°C 53.1°F11.7°C
Dew Point 52.2°F11.2°C 47.5°F8.6°C 50.3°F10.2°C
Winds 2.0 mph 3.2 kmh Calm Calm Calm SSECalm SSE
Wind Gusts 4.0 mph6.4 kmh -- 1.0 mph1.6 kmh
Humidity 95% 81% 90%
Pressure 30.23 in1023.7 mb 30.11 in1019.6 mb -
Precipitation 0.54 in13.7 mm - -
Hour Temp Dew Point Humidity Winds Wind Gusts Pressure Precip Precip Rate Daily Precip Total
12:00 AM 49.6°F9.8°C 47.7°F8.7°C 93% Calm Calm -- 30.23 in1023.7 mb 0.00 in0.0 mm 0.00 in0.0 mm 0.54 in13.7 mm
12:10 AM 49.6°F9.8°C 47.7°F8.7°C 93% Calm Calm -- 30.22 in1023.4 mb 0.00 in0.0 mm 0.00 in0.0 mm 0.54 in13.7 mm
12:20 AM 49.6°F9.8°C 47.7°F8.7°C 93% Calm Calm -- 30.22 in1023.4 mb 0.00 in0.0 mm 0.00 in0.0 mm 0.54 in13.7 mm
02:00 AM 49.6°F9.8°C 48.0°F8.9°C 94% Calm Calm -- 30.21 in1023.0 mb 0.00 in0.0 mm 0.00 in0.0 mm 0.01 in0.3 mm
02:10 AM 49.6°F9.8°C 47.7°F8.7°C 93% Calm Calm -- 30.21 in1023.0 mb 0.00 in0.0 mm 0.00 in0.0 mm 0.01 in0.3 mm
02:20 AM 49.5°F9.7°C 47.5°F8.6°C 93% Calm Calm -- 30.21 in1023.0 mb 0.00 in0.0 mm 0.00 in0.0 mm 0.01 in0.3 mm
04:00 AM 49.6°F9.8°C 48.0°F8.9°C 94% 0.7 mph S1.1 kmh S 1.0 mph1.6 kmh 30.19 in1022.4 mb 0.00 in0.0 mm 0.00 in0.0 mm 0.02 in0.5 mm
04:10 AM 49.6°F9.8°C 48.0°F8.9°C 94% 0.1 mph ENE0.2 kmh ENE 1.0 mph1.6 kmh 30.19 in1022.4 mb 0.00 in0.0 mm 0.00 in0.0 mm 0.02 in0.5 mm
04:20 AM 49.6°F9.8°C 48.0°F8.9°C 94% Calm Calm -- 30.19 in1022.4 mb 0.00 in0.0 mm 0.00 in0.0 mm 0.02 in0.5 mm
06:00 AM 49.6°F9.8°C 48.0°F8.9°C 94% Calm Calm -- 30.19 in1022.4 mb 0.00 in0.0 mm 0.00 in0.0 mm 0.02 in0.5 mm
06:10 AM 49.8°F9.9°C 48.2°F9.0°C 94% Calm Calm -- 30.19 in1022.4 mb 0.00 in0.0 mm 0.00 in0.0 mm 0.02 in0.5 mm
06:20 AM 49.8°F9.9°C 48.2°F9.0°C 94% Calm Calm -- 30.19 in1022.4 mb 0.00 in0.0 mm 0.00 in0.0 mm 0.02 in0.5 mm
08:00 AM 51.4°F10.8°C 50.1°F10.1°C 95% Calm Calm -- 30.19 in1022.4 mb 0.00 in0.0 mm 0.00 in0.0 mm 0.02 in0.5 mm
08:10 AM 51.6°F10.9°C 50.0°F10.0°C 94% Calm Calm -- 30.19 in1022.4 mb 0.00 in0.0 mm 0.00 in0.0 mm 0.02 in0.5 mm
08:20 AM 52.0°F11.1°C 50.3°F10.2°C 94% Calm Calm -- 30.19 in1022.4 mb 0.00 in0.0 mm 0.00 in0.0 mm 0.02 in0.5 mm
10:00 AM 55.4°F13.0°C 52.2°F11.2°C 89% Calm Calm -- 30.18 in1022.0 mb 0.00 in0.0 mm 0.00 in0.0 mm 0.02 in0.5 mm
10:10 AM 55.6°F13.1°C 51.8°F11.0°C 87% 0.9 mph E1.4 kmh E 3.0 mph4.8 kmh 30.18 in1022.0 mb 0.00 in0.0 mm 0.00 in0.0 mm 0.02 in0.5 mm
10:20 AM 56.3°F13.5°C 51.8°F11.0°C 85% 0.6 mph NE1.0 kmh NE 2.0 mph3.2 kmh 30.18 in1022.0 mb 0.00 in0.0 mm 0.00 in0.0 mm 0.02 in0.5 mm
12:00 PM 56.3°F13.5°C 51.5°F10.8°C 84% 0.1 mph ENE0.2 kmh ENE 1.0 mph1.6 kmh 30.16 in1021.3 mb 0.00 in0.0 mm 0.00 in0.0 mm 0.02 in0.5 mm
12:10 PM 56.3°F13.5°C 52.2°F11.2°C 86% 0.6 mph E1.0 kmh E 2.0 mph3.2 kmh 30.16 in1021.3 mb 0.00 in0.0 mm 0.00 in0.0 mm 0.02 in0.5 mm
12:20 PM 56.3°F13.5°C 52.2°F11.2°C 86% 0.9 mph E1.4 kmh E 4.0 mph6.4 kmh 30.16 in1021.3 mb 0.00 in0.0 mm 0.00 in0.0 mm 0.02 in0.5 mm
02:00 PM 57.7°F14.3°C 51.9°F11.1°C 81% 1.9 mph NE3.1 kmh NE 4.0 mph6.4 kmh 30.13 in1020.3 mb 0.00 in0.0 mm 0.00 in0.0 mm 0.02 in0.5 mm
02:10 PM 57.6°F14.2°C 52.1°F11.2°C 82% 2.0 mph ENE3.2 kmh ENE 4.0 mph6.4 kmh 30.13 in1020.3 mb 0.00 in0.0 mm 0.00 in0.0 mm 0.02 in0.5 mm
02:20 PM 57.2°F14.0°C 52.1°F11.2°C 83% 0.6 mph E1.0 kmh E 4.0 mph6.4 kmh 30.13 in1020.3 mb 0.00 in0.0 mm 0.00 in0.0 mm 0.02 in0.5 mm
04:00 PM 55.9°F13.3°C 51.8°F11.0°C 86% Calm Calm -- 30.11 in1019.6 mb 0.00 in0.0 mm 0.00 in0.0 mm 0.02 in0.5 mm
04:10 PM 55.9°F13.3°C 52.1°F11.2°C 87% Calm Calm -- 30.11 in1019.6 mb 0.00 in0.0 mm 0.00 in0.0 mm 0.02 in0.5 mm
04:20 PM 55.8°F13.2°C 51.9°F11.1°C 87% Calm Calm -- 30.11 in1019.6 mb 0.00 in0.0 mm 0.00 in0.0 mm 0.02 in0.5 mm
06:00 PM 55.2°F12.9°C 52.0°F11.1°C 89% Calm Calm -- 30.11 in1019.6 mb 0.00 in0.0 mm 0.00 in0.0 mm 0.02 in0.5 mm
06:10 PM 55.0°F12.8°C 51.9°F11.1°C 89% Calm Calm -- 30.11 in1019.6 mb 0.00 in0.0 mm 0.00 in0.0 mm 0.02 in0.5 mm
06:20 PM 54.9°F12.7°C 51.7°F10.9°C 89% 0.1 mph N0.2 kmh N 1.0 mph1.6 kmh 30.11 in1019.6 mb 0.00 in0.0 mm 0.00 in0.0 mm 0.02 in0.5 mm
08:00 PM 53.8°F12.1°C 51.5°F10.8°C 92% Calm Calm -- 30.12 in1020.0 mb 0.01 in0.3 mm 0.02 in0.5 mm 0.10 in2.5 mm
08:10 PM 53.8°F12.1°C 51.5°F10.8°C 92% Calm Calm -- 30.12 in1020.0 mb 0.00 in0.0 mm 0.00 in0.0 mm 0.11 in2.8 mm
08:20 PM 53.8°F12.1°C 51.5°F10.8°C 92% Calm Calm -- 30.12 in1020.0 mb 0.01 in0.3 mm 0.05 in1.3 mm 0.12 in3.0 mm
10:00 PM 53.2°F11.8°C 51.3°F10.7°C 93% Calm Calm -- 30.12 in1020.0 mb 0.01 in0.3 mm 0.02 in0.5 mm 0.21 in5.3 mm
10:10 PM 53.1°F11.7°C 51.1°F10.6°C 93% Calm Calm -- 30.12 in1020.0 mb 0.00 in0.0 mm 0.00 in0.0 mm 0.22 in5.6 mm
10:20 PM 53.2°F11.8°C 51.3°F10.7°C 93% Calm Calm -- 30.12 in1020.0 mb 0.00 in0.0 mm 0.00 in0.0 mm 0.23 in5.8 mm